createdAt,value
2023-03-26T00:00:12.497Z,5.38
2023-03-26T00:00:44.719Z,5.38
2023-03-26T00:01:15.924Z,5.38
2023-03-26T00:01:48.834Z,5.38
2023-03-26T00:02:19.948Z,5.38
2023-03-26T00:02:52.642Z,5.38
2023-03-26T00:03:23.717Z,5.38
2023-03-26T00:03:56.781Z,5.38
2023-03-26T00:04:27.846Z,5.38
2023-03-26T00:05:00.749Z,5.38
2023-03-26T00:05:31.655Z,5.38
2023-03-26T00:06:04.674Z,5.38
2023-03-26T00:06:35.694Z,5.38
2023-03-26T00:07:08.440Z,5.38
2023-03-26T00:07:39.555Z,5.38
2023-03-26T00:08:12.565Z,5.38
2023-03-26T00:08:43.578Z,5.38
2023-03-26T00:09:16.432Z,5.38
2023-03-26T00:09:47.516Z,5.27
2023-03-26T00:10:20.489Z,5.27
2023-03-26T00:10:51.678Z,5.27
2023-03-26T00:11:24.326Z,5.27
2023-03-26T00:11:55.388Z,5.27
2023-03-26T00:12:28.277Z,5.27
2023-03-26T00:12:59.425Z,5.27
2023-03-26T00:13:32.231Z,5.27
2023-03-26T00:14:03.262Z,5.27
2023-03-26T00:14:36.352Z,5.27
2023-03-26T00:15:07.608Z,5.27
2023-03-26T00:15:40.081Z,5.27
2023-03-26T00:16:11.295Z,5.27
2023-03-26T00:16:44.140Z,5.27
2023-03-26T00:17:15.248Z,5.42
2023-03-26T00:17:48.058Z,5.42
2023-03-26T00:18:19.123Z,5.42
2023-03-26T00:18:52.103Z,5.42
2023-03-26T00:19:23.238Z,5.42
2023-03-26T00:19:55.866Z,5.42
2023-03-26T00:20:27.031Z,5.42
2023-03-26T00:20:59.953Z,5.42
2023-03-26T00:21:31.161Z,5.42
2023-03-26T00:22:03.857Z,5.42
2023-03-26T00:22:34.923Z,5.42
2023-03-26T00:23:08.006Z,5.42
2023-03-26T00:23:38.986Z,5.42
2023-03-26T00:24:11.738Z,5.42
2023-03-26T00:24:43.147Z,5.42
2023-03-26T00:25:15.770Z,5.42
2023-03-26T00:25:48.531Z,5.42
2023-03-26T00:26:19.637Z,5.42
2023-03-26T00:26:50.912Z,5.42
2023-03-26T00:27:23.677Z,5.42
2023-03-26T00:27:54.785Z,5.42
2023-03-26T00:28:27.532Z,5.42
2023-03-26T00:28:58.624Z,5.42
2023-03-26T00:29:31.584Z,5.42
2023-03-26T00:30:02.810Z,5.42
2023-03-26T00:30:35.517Z,5.42
2023-03-26T00:31:06.565Z,5.42
2023-03-26T00:31:39.588Z,5.42
2023-03-26T00:32:10.718Z,5.42
2023-03-26T00:32:43.414Z,5.27
2023-03-26T00:33:14.432Z,5.27
2023-03-26T00:33:47.511Z,5.27
2023-03-26T00:34:18.792Z,5.27
2023-03-26T00:34:51.335Z,5.27
2023-03-26T00:35:22.574Z,5.27
2023-03-26T00:35:55.535Z,5.27
2023-03-26T00:36:26.584Z,5.27
2023-03-26T00:36:59.341Z,5.27
2023-03-26T00:37:30.466Z,5.27
2023-03-26T00:38:03.290Z,5.27
2023-03-26T00:38:34.824Z,5.27
2023-03-26T00:39:07.050Z,5.27
2023-03-26T00:39:38.174Z,5.27
2023-03-26T00:40:11.176Z,5.27
2023-03-26T00:40:42.226Z,5.27
2023-03-26T00:41:15.169Z,5.15
2023-03-26T00:41:46.118Z,5.15
2023-03-26T00:42:19.154Z,5.15
2023-03-26T00:42:50.132Z,5.15
2023-03-26T00:43:23.081Z,5.15
2023-03-26T00:43:53.961Z,5.15
2023-03-26T00:44:27.080Z,5.15
2023-03-26T00:44:58.075Z,5.15
2023-03-26T00:45:31.267Z,5.15
2023-03-26T00:46:01.972Z,5.15
2023-03-26T00:46:35.252Z,5.15
2023-03-26T00:47:05.942Z,5.15
2023-03-26T00:47:38.964Z,5.15
2023-03-26T00:48:09.814Z,5.15
2023-03-26T00:48:45.557Z,5.15
2023-03-26T00:49:13.858Z,5.15
2023-03-26T00:49:46.864Z,5.15
2023-03-26T00:50:17.749Z,5.15
2023-03-26T00:50:50.858Z,5.15
2023-03-26T00:51:21.768Z,5.15
2023-03-26T00:51:54.725Z,5.15
2023-03-26T00:52:25.633Z,5.15
2023-03-26T00:52:58.543Z,5.15
2023-03-26T00:53:29.670Z,5.15
2023-03-26T00:54:02.663Z,5.15
2023-03-26T00:54:33.564Z,5.27
2023-03-26T00:55:06.507Z,5.27
2023-03-26T00:55:37.635Z,5.27
2023-03-26T00:56:10.838Z,5.27
2023-03-26T00:56:41.615Z,5.27
2023-03-26T00:57:22.562Z,5.27
2023-03-26T00:57:45.534Z,5.27
2023-03-26T00:58:18.451Z,5.27
2023-03-26T00:58:49.342Z,5.27
2023-03-26T00:59:22.186Z,5.27
2023-03-26T00:59:53.408Z,5.27
2023-03-26T01:00:26.439Z,5.27
2023-03-26T01:00:57.289Z,5.27
2023-03-26T01:01:30.314Z,5.27
2023-03-26T01:02:01.381Z,5.27
2023-03-26T01:02:34.510Z,5.27
2023-03-26T01:03:05.247Z,5.27
2023-03-26T01:03:38.310Z,5.27
2023-03-26T01:04:09.474Z,5.27
2023-03-26T01:04:42.307Z,5.27
2023-03-26T01:05:13.177Z,5.27
2023-03-26T01:05:46.072Z,5.27
2023-03-26T01:06:17.146Z,5.38
2023-03-26T01:06:50.043Z,5.38
2023-03-26T01:07:21.306Z,5.38
2023-03-26T01:07:53.884Z,5.38
2023-03-26T01:08:25.057Z,5.38
2023-03-26T01:08:57.947Z,5.38
2023-03-26T01:09:29.084Z,5.38
2023-03-26T01:10:01.965Z,5.38
2023-03-26T01:10:33.551Z,5.38
2023-03-26T01:11:05.855Z,5.38
2023-03-26T01:11:36.959Z,5.53
2023-03-26T01:12:09.693Z,5.38
2023-03-26T01:12:41.046Z,5.53
2023-03-26T01:13:13.886Z,5.53
2023-03-26T01:13:44.898Z,5.38
2023-03-26T01:14:17.652Z,5.53
2023-03-26T01:14:49.635Z,5.53
2023-03-26T01:15:21.807Z,5.53
2023-03-26T01:15:53.216Z,5.38
2023-03-26T01:16:25.679Z,5.38
2023-03-26T01:16:56.634Z,5.38
2023-03-26T01:17:29.635Z,5.38
2023-03-26T01:18:00.894Z,5.49
2023-03-26T01:18:33.535Z,5.49
2023-03-26T01:19:04.560Z,5.49
2023-03-26T01:19:37.498Z,5.49
2023-03-26T01:20:08.643Z,5.49
2023-03-26T01:20:41.583Z,5.49
2023-03-26T01:21:12.452Z,5.49
2023-03-26T01:21:45.907Z,5.49
2023-03-26T01:22:16.645Z,5.49
2023-03-26T01:22:49.225Z,5.49
2023-03-26T01:23:20.421Z,5.49
2023-03-26T01:23:53.468Z,5.49
2023-03-26T01:24:24.461Z,5.49
2023-03-26T01:24:57.143Z,5.49
2023-03-26T01:25:28.328Z,5.49
2023-03-26T01:26:01.287Z,5.49
2023-03-26T01:26:32.540Z,5.49
2023-03-26T01:27:05.065Z,5.49
2023-03-26T01:27:36.171Z,5.49
2023-03-26T01:28:09.408Z,5.49
2023-03-26T01:28:40.406Z,5.49
2023-03-26T01:29:12.991Z,5.49
2023-03-26T01:29:44.194Z,5.49
2023-03-26T01:30:17.321Z,5.38
2023-03-26T01:30:48.197Z,5.38
2023-03-26T01:31:21.003Z,5.38
2023-03-26T01:31:51.985Z,5.38
2023-03-26T01:32:25.085Z,5.38
2023-03-26T01:32:56.114Z,5.38
2023-03-26T01:33:29.031Z,5.38
2023-03-26T01:33:59.917Z,5.38
2023-03-26T01:34:32.975Z,5.38
2023-03-26T01:35:04.115Z,5.38
2023-03-26T01:35:36.986Z,5.38
2023-03-26T01:36:07.958Z,5.38
2023-03-26T01:36:41.023Z,5.38
2023-03-26T01:37:11.980Z,5.38
2023-03-26T01:37:44.664Z,5.38
2023-03-26T01:38:15.786Z,5.38
2023-03-26T01:38:48.765Z,5.38
2023-03-26T01:39:19.797Z,5.38
2023-03-26T01:39:52.594Z,5.38
2023-03-26T01:40:23.779Z,5.38
2023-03-26T01:40:56.595Z,5.38
2023-03-26T01:41:27.717Z,5.38
2023-03-26T01:42:00.516Z,5.38
2023-03-26T01:42:31.602Z,5.38
2023-03-26T01:43:04.596Z,5.38
2023-03-26T01:43:35.592Z,5.38
2023-03-26T01:44:08.353Z,5.38
2023-03-26T01:44:39.491Z,5.38
2023-03-26T01:45:12.490Z,5.38
2023-03-26T01:45:43.569Z,5.38
2023-03-26T01:46:16.326Z,5.38
2023-03-26T01:46:47.436Z,5.38
2023-03-26T01:47:20.380Z,5.38
2023-03-26T01:47:51.643Z,5.49
2023-03-26T01:48:24.352Z,5.49
2023-03-26T01:48:55.267Z,5.33
2023-03-26T01:49:28.450Z,5.33
2023-03-26T01:49:59.348Z,5.33
2023-03-26T01:50:32.086Z,5.33
2023-03-26T01:51:03.294Z,5.33
2023-03-26T01:51:36.182Z,5.33
2023-03-26T01:52:07.254Z,5.33
2023-03-26T01:52:39.994Z,5.33
2023-03-26T01:53:11.261Z,5.33
2023-03-26T01:53:44.174Z,5.33
2023-03-26T01:54:15.208Z,5.33
2023-03-26T01:54:47.984Z,5.33
2023-03-26T01:55:19.067Z,5.33
2023-03-26T01:55:52.015Z,5.33
2023-03-26T01:56:23.095Z,5.33
2023-03-26T01:56:55.860Z,5.33
2023-03-26T01:57:26.931Z,5.33
2023-03-26T01:57:59.873Z,5.33
2023-03-26T01:58:31.225Z,5.33
2023-03-26T01:59:03.817Z,5.18
2023-03-26T01:59:34.838Z,5.18
2023-03-26T02:00:08.722Z,5.18
2023-03-26T02:00:38.937Z,5.18
2023-03-26T02:01:11.796Z,5.23
2023-03-26T02:01:42.911Z,5.23
2023-03-26T02:02:16.075Z,5.23
2023-03-26T02:02:46.915Z,5.23
2023-03-26T02:03:20.359Z,5.23
2023-03-26T02:03:50.735Z,5.23
2023-03-26T02:04:23.588Z,5.23
2023-03-26T02:04:54.714Z,5.23
2023-03-26T02:05:27.500Z,5.23
2023-03-26T02:05:58.568Z,5.23
2023-03-26T02:06:31.663Z,5.23
2023-03-26T02:07:02.602Z,5.23
2023-03-26T02:07:39.236Z,5.23
2023-03-26T02:08:06.553Z,5.23
2023-03-26T02:08:38.503Z,5.23
2023-03-26T02:09:10.618Z,5.18
2023-03-26T02:09:42.394Z,5.18
2023-03-26T02:10:14.438Z,5.18
2023-03-26T02:10:46.398Z,5.33
2023-03-26T02:11:19.955Z,5.33
2023-03-26T02:11:50.636Z,5.33
2023-03-26T02:12:22.277Z,5.33
2023-03-26T02:12:54.320Z,5.33
2023-03-26T02:13:26.352Z,5.22
2023-03-26T02:13:58.347Z,5.22
2023-03-26T02:14:30.276Z,5.22
2023-03-26T02:15:02.417Z,5.22
2023-03-26T02:15:34.255Z,5.22
2023-03-26T02:16:06.254Z,5.22
2023-03-26T02:16:38.148Z,5.22
2023-03-26T02:17:10.109Z,5.22
2023-03-26T02:17:42.198Z,5.22
2023-03-26T02:18:14.243Z,5.22
2023-03-26T02:18:45.978Z,5.22
2023-03-26T02:19:18.031Z,5.22
2023-03-26T02:19:50.049Z,5.22
2023-03-26T02:20:22.098Z,5.22
2023-03-26T02:20:53.979Z,5.22
2023-03-26T02:21:25.940Z,5.33
2023-03-26T02:21:57.977Z,5.33
2023-03-26T02:22:30.076Z,5.33
2023-03-26T02:23:01.923Z,5.33
2023-03-26T02:23:34.012Z,5.33
2023-03-26T02:24:05.874Z,5.33
2023-03-26T02:24:37.906Z,5.33
2023-03-26T02:25:09.733Z,5.33
2023-03-26T02:25:41.798Z,5.33
2023-03-26T02:26:13.862Z,5.33
2023-03-26T02:26:45.798Z,5.33
2023-03-26T02:27:17.629Z,5.33
2023-03-26T02:27:49.755Z,5.33
2023-03-26T02:28:21.656Z,5.33
2023-03-26T02:28:53.794Z,5.38
2023-03-26T02:29:25.529Z,5.38
2023-03-26T02:29:57.570Z,5.38
2023-03-26T02:30:29.970Z,5.38
2023-03-26T02:31:01.657Z,5.38
2023-03-26T02:31:34.214Z,5.38
2023-03-26T02:32:05.463Z,5.38
2023-03-26T02:32:37.545Z,5.38
2023-03-26T02:33:09.559Z,5.38
2023-03-26T02:33:41.417Z,5.38
2023-03-26T02:34:13.556Z,5.38
2023-03-26T02:34:45.394Z,5.38
2023-03-26T02:35:17.601Z,5.38
2023-03-26T02:35:49.364Z,5.38
2023-03-26T02:36:21.462Z,5.38
2023-03-26T02:36:53.348Z,5.38
2023-03-26T02:37:25.368Z,5.38
2023-03-26T02:37:57.140Z,5.38
2023-03-26T02:38:29.305Z,5.38
2023-03-26T02:39:01.452Z,5.38
2023-03-26T02:39:33.261Z,5.38
2023-03-26T02:40:05.084Z,5.38
2023-03-26T02:40:37.153Z,5.38
2023-03-26T02:41:09.111Z,5.38
2023-03-26T02:41:41.339Z,5.38
2023-03-26T02:42:13.011Z,5.38
2023-03-26T02:42:44.986Z,5.38
2023-03-26T02:43:17.030Z,5.38
2023-03-26T02:43:49.072Z,5.38
2023-03-26T02:44:21.780Z,5.38
2023-03-26T02:44:52.942Z,5.38
2023-03-26T02:45:28.483Z,5.38
2023-03-26T02:45:57.880Z,5.38
2023-03-26T02:46:30.305Z,5.38
2023-03-26T02:47:00.983Z,5.38
2023-03-26T02:47:34.042Z,5.38
2023-03-26T02:48:05.094Z,5.54
2023-03-26T02:48:38.184Z,5.54
2023-03-26T02:49:08.737Z,5.54
2023-03-26T02:49:41.680Z,5.54
2023-03-26T02:50:12.863Z,5.54
2023-03-26T02:50:46.315Z,5.38
2023-03-26T02:51:16.632Z,5.38
2023-03-26T02:51:49.923Z,5.38
2023-03-26T02:52:21.500Z,5.38
2023-03-26T02:52:53.739Z,5.38
2023-03-26T02:53:24.594Z,5.49
2023-03-26T02:53:57.679Z,5.49
2023-03-26T02:54:28.610Z,5.49
2023-03-26T02:55:01.619Z,5.49
2023-03-26T02:55:32.467Z,5.49
2023-03-26T02:56:05.689Z,5.49
2023-03-26T02:56:36.521Z,5.49
2023-03-26T02:57:09.614Z,5.49
2023-03-26T02:57:40.457Z,5.49
2023-03-26T02:58:13.733Z,5.49
2023-03-26T02:58:44.411Z,5.49
2023-03-26T02:59:17.382Z,5.49
2023-03-26T02:59:48.330Z,5.49
2023-03-26T03:00:21.397Z,5.49
2023-03-26T03:00:52.343Z,5.49
2023-03-26T03:01:25.311Z,5.49
2023-03-26T03:01:56.221Z,5.49
2023-03-26T03:02:29.448Z,5.60
2023-03-26T03:03:00.354Z,5.60
2023-03-26T03:03:33.387Z,5.60
2023-03-26T03:04:04.525Z,5.60
2023-03-26T03:04:37.011Z,5.60
2023-03-26T03:05:08.196Z,5.60
2023-03-26T03:05:41.431Z,5.60
2023-03-26T03:06:12.032Z,5.60
2023-03-26T03:06:45.359Z,5.60
2023-03-26T03:07:16.063Z,5.60
2023-03-26T03:07:49.304Z,5.60
2023-03-26T03:08:20.002Z,5.60
2023-03-26T03:08:54.045Z,5.60
2023-03-26T03:09:23.983Z,5.60
2023-03-26T03:09:57.077Z,5.60
2023-03-26T03:10:27.843Z,5.45
2023-03-26T03:11:01.184Z,5.45
2023-03-26T03:11:31.865Z,5.45
2023-03-26T03:12:05.113Z,5.45
2023-03-26T03:12:35.733Z,5.45
2023-03-26T03:13:08.872Z,5.45
2023-03-26T03:13:39.818Z,5.45
2023-03-26T03:14:12.962Z,5.45
2023-03-26T03:14:43.674Z,5.45
2023-03-26T03:15:16.752Z,5.45
2023-03-26T03:15:47.754Z,5.60
2023-03-26T03:16:21.087Z,5.60
2023-03-26T03:16:51.592Z,5.60
2023-03-26T03:17:24.489Z,5.49
2023-03-26T03:17:55.760Z,5.49
2023-03-26T03:18:28.608Z,5.49
2023-03-26T03:18:59.476Z,5.49
2023-03-26T03:19:32.398Z,5.49
2023-03-26T03:20:03.597Z,5.49
2023-03-26T03:20:36.730Z,5.49
2023-03-26T03:21:07.337Z,5.49
2023-03-26T03:21:40.713Z,5.49
2023-03-26T03:22:11.429Z,5.49
2023-03-26T03:22:44.993Z,5.49
2023-03-26T03:23:15.281Z,5.49
2023-03-26T03:23:48.484Z,5.49
2023-03-26T03:24:19.323Z,5.38
2023-03-26T03:24:52.458Z,5.38
2023-03-26T03:25:23.202Z,5.38
2023-03-26T03:25:56.668Z,5.38
2023-03-26T03:26:27.225Z,5.38
2023-03-26T03:27:00.276Z,5.38
2023-03-26T03:27:31.197Z,5.38
2023-03-26T03:28:04.136Z,5.54
2023-03-26T03:28:35.123Z,5.54
2023-03-26T03:29:08.205Z,5.54
2023-03-26T03:29:39.049Z,5.54
2023-03-26T03:30:12.374Z,5.54
2023-03-26T03:30:43.078Z,5.54
2023-03-26T03:31:16.377Z,5.54
2023-03-26T03:31:46.871Z,5.54
2023-03-26T03:32:19.910Z,5.54
2023-03-26T03:32:51.028Z,5.54
2023-03-26T03:33:24.037Z,5.54
2023-03-26T03:33:55.011Z,5.54
2023-03-26T03:34:27.775Z,5.54
2023-03-26T03:34:58.885Z,5.54
2023-03-26T03:35:31.986Z,5.54
2023-03-26T03:36:02.764Z,5.54
2023-03-26T03:36:36.819Z,5.54
2023-03-26T03:37:06.806Z,5.54
2023-03-26T03:37:40.021Z,5.54
2023-03-26T03:38:11.114Z,5.49
2023-03-26T03:38:43.630Z,5.49
2023-03-26T03:39:14.717Z,5.33
2023-03-26T03:39:47.605Z,5.33
2023-03-26T03:40:18.756Z,5.33
2023-03-26T03:40:51.519Z,5.33
2023-03-26T03:41:22.727Z,5.33
2023-03-26T03:41:55.518Z,5.33
2023-03-26T03:42:26.620Z,5.33
2023-03-26T03:42:59.343Z,5.33
2023-03-26T03:43:30.727Z,5.33
2023-03-26T03:44:03.405Z,5.33
2023-03-26T03:44:34.988Z,5.33
2023-03-26T03:45:07.555Z,5.33
2023-03-26T03:45:38.456Z,5.33
2023-03-26T03:46:11.508Z,5.33
2023-03-26T03:46:42.454Z,5.33
2023-03-26T03:47:15.164Z,5.33
2023-03-26T03:47:46.313Z,5.33
2023-03-26T03:48:19.346Z,5.33
2023-03-26T03:48:50.438Z,5.33
2023-03-26T03:49:23.108Z,5.33
2023-03-26T03:49:54.241Z,5.33
2023-03-26T03:50:27.148Z,5.33
2023-03-26T03:50:58.262Z,5.33
2023-03-26T03:51:31.413Z,5.33
2023-03-26T03:52:02.095Z,5.33
2023-03-26T03:52:35.079Z,5.33
2023-03-26T03:53:06.245Z,5.33
2023-03-26T03:53:38.915Z,5.33
2023-03-26T03:54:10.094Z,5.33
2023-03-26T03:54:42.988Z,5.33
2023-03-26T03:55:14.185Z,5.33
2023-03-26T03:55:46.921Z,5.33
2023-03-26T03:56:17.939Z,5.22
2023-03-26T03:56:51.161Z,5.33
2023-03-26T03:57:22.044Z,5.22
2023-03-26T03:57:54.768Z,5.22
2023-03-26T03:58:25.886Z,5.22
2023-03-26T03:58:58.798Z,5.22
2023-03-26T03:59:29.917Z,5.22
2023-03-26T04:00:03.971Z,5.22
2023-03-26T04:00:33.810Z,5.22
2023-03-26T04:01:06.856Z,5.22
2023-03-26T04:01:37.850Z,5.22
2023-03-26T04:02:10.704Z,5.22
2023-03-26T04:02:41.706Z,5.22
2023-03-26T04:03:14.725Z,5.22
2023-03-26T04:03:46.078Z,5.22
2023-03-26T04:04:18.611Z,5.22
2023-03-26T04:04:49.671Z,5.22
2023-03-26T04:05:22.531Z,5.22
2023-03-26T04:05:53.798Z,5.22
2023-03-26T04:06:26.449Z,5.22
2023-03-26T04:06:57.474Z,5.22
2023-03-26T04:07:30.470Z,5.22
2023-03-26T04:08:01.624Z,5.22
2023-03-26T04:08:34.402Z,5.38
2023-03-26T04:09:05.512Z,5.38
2023-03-26T04:09:38.386Z,5.38
2023-03-26T04:10:09.509Z,5.38
2023-03-26T04:10:42.213Z,5.38
2023-03-26T04:11:13.320Z,5.38
2023-03-26T04:11:46.220Z,5.38
2023-03-26T04:12:17.323Z,5.38
2023-03-26T04:12:50.101Z,5.38
2023-03-26T04:13:21.337Z,5.38
2023-03-26T04:13:54.162Z,5.38
2023-03-26T04:14:25.281Z,5.38
2023-03-26T04:14:57.990Z,5.38
2023-03-26T04:15:29.233Z,5.38
2023-03-26T04:16:02.057Z,5.38
2023-03-26T04:16:33.511Z,5.38
2023-03-26T04:17:06.139Z,5.38
2023-03-26T04:17:37.060Z,5.38
2023-03-26T04:18:10.199Z,5.38
2023-03-26T04:18:41.143Z,5.27
2023-03-26T04:19:14.012Z,5.27
2023-03-26T04:19:44.910Z,5.27
2023-03-26T04:20:17.857Z,5.27
2023-03-26T04:20:48.981Z,5.27
2023-03-26T04:21:22.189Z,5.42
2023-03-26T04:21:52.839Z,5.42
2023-03-26T04:22:25.757Z,5.27
2023-03-26T04:22:56.923Z,5.27
2023-03-26T04:23:29.833Z,5.42
2023-03-26T04:24:01.058Z,5.42
2023-03-26T04:24:33.818Z,5.42
2023-03-26T04:25:04.843Z,5.42
2023-03-26T04:25:37.565Z,5.42
2023-03-26T04:26:08.710Z,5.42
2023-03-26T04:26:41.605Z,5.42
2023-03-26T04:27:12.718Z,5.42
2023-03-26T04:27:45.657Z,5.42
2023-03-26T04:28:16.551Z,5.42
2023-03-26T04:28:49.601Z,5.42
2023-03-26T04:29:20.718Z,5.42
2023-03-26T04:29:53.576Z,5.42
2023-03-26T04:30:24.587Z,5.42
2023-03-26T04:30:57.587Z,5.42
2023-03-26T04:31:28.567Z,5.42
2023-03-26T04:32:01.621Z,5.42
2023-03-26T04:32:32.430Z,5.30
2023-03-26T04:33:05.374Z,5.30
2023-03-26T04:33:36.452Z,5.30
2023-03-26T04:34:09.908Z,5.30
2023-03-26T04:34:40.333Z,5.30
2023-03-26T04:35:13.264Z,5.30
2023-03-26T04:35:44.393Z,5.30
2023-03-26T04:36:17.244Z,5.30
2023-03-26T04:36:48.192Z,5.30
2023-03-26T04:37:21.263Z,5.30
2023-03-26T04:37:52.239Z,5.30
2023-03-26T04:38:25.335Z,5.30
2023-03-26T04:38:56.132Z,5.30
2023-03-26T04:39:29.044Z,5.30
2023-03-26T04:40:00.217Z,5.30
2023-03-26T04:40:33.102Z,5.30
2023-03-26T04:41:04.623Z,5.30
2023-03-26T04:41:37.944Z,5.42
2023-03-26T04:42:08.084Z,5.30
2023-03-26T04:42:41.046Z,5.30
2023-03-26T04:43:11.903Z,5.30
2023-03-26T04:43:44.800Z,5.30
2023-03-26T04:44:15.989Z,5.30
2023-03-26T04:44:48.883Z,5.30
2023-03-26T04:45:19.915Z,5.30
2023-03-26T04:45:52.983Z,5.30
2023-03-26T04:46:24.010Z,5.30
2023-03-26T04:46:56.854Z,5.30
2023-03-26T04:47:27.719Z,5.30
2023-03-26T04:48:00.828Z,5.30
2023-03-26T04:48:31.763Z,5.30
2023-03-26T04:49:04.689Z,5.30
2023-03-26T04:49:35.688Z,5.30
2023-03-26T04:50:08.803Z,5.30
2023-03-26T04:50:39.669Z,5.30
2023-03-26T04:51:12.626Z,5.30
2023-03-26T04:51:43.755Z,5.30
2023-03-26T04:52:16.453Z,5.30
2023-03-26T04:52:47.577Z,5.30
2023-03-26T04:53:20.921Z,5.30
2023-03-26T04:53:51.749Z,5.19
2023-03-26T04:54:24.486Z,5.19
2023-03-26T04:54:55.496Z,5.19
2023-03-26T04:55:28.845Z,5.19
2023-03-26T04:55:59.366Z,5.19
2023-03-26T04:56:32.348Z,5.19
2023-03-26T04:57:03.450Z,5.19
2023-03-26T04:57:36.380Z,5.19
2023-03-26T04:58:07.505Z,5.19
2023-03-26T04:58:40.254Z,5.19
2023-03-26T04:59:11.390Z,5.19
2023-03-26T04:59:45.586Z,5.19
2023-03-26T05:00:15.647Z,5.19
2023-03-26T05:00:48.306Z,5.19
2023-03-26T05:01:19.386Z,5.19
2023-03-26T05:01:52.274Z,5.19
2023-03-26T05:02:23.289Z,5.19
2023-03-26T05:02:56.330Z,5.19
2023-03-26T05:03:27.135Z,5.19
2023-03-26T05:04:00.386Z,5.19
2023-03-26T05:04:31.501Z,5.19
2023-03-26T05:05:03.968Z,5.19
2023-03-26T05:05:35.104Z,5.19
2023-03-26T05:06:08.130Z,5.19
2023-03-26T05:06:39.098Z,5.19
2023-03-26T05:07:11.853Z,5.19
2023-03-26T05:07:42.957Z,5.19
2023-03-26T05:08:15.992Z,5.30
2023-03-26T05:08:47.059Z,5.30
2023-03-26T05:09:20.060Z,5.30
2023-03-26T05:09:51.151Z,5.30
2023-03-26T05:10:24.006Z,5.30
2023-03-26T05:10:55.147Z,5.30
2023-03-26T05:11:27.668Z,5.30
2023-03-26T05:11:58.783Z,5.19
2023-03-26T05:12:31.731Z,5.19
2023-03-26T05:13:02.868Z,5.19
2023-03-26T05:13:35.667Z,5.19
2023-03-26T05:14:06.939Z,5.19
2023-03-26T05:14:39.736Z,5.19
2023-03-26T05:15:11.158Z,5.19
2023-03-26T05:15:43.855Z,5.14
2023-03-26T05:16:14.694Z,5.14
2023-03-26T05:16:47.720Z,5.14
2023-03-26T05:17:18.647Z,5.14
2023-03-26T05:17:51.463Z,5.14
2023-03-26T05:18:22.500Z,5.14
2023-03-26T05:18:55.468Z,5.14
2023-03-26T05:19:26.578Z,5.14
2023-03-26T05:20:00.437Z,5.14
2023-03-26T05:20:30.547Z,5.14
2023-03-26T05:21:03.472Z,5.14
2023-03-26T05:21:34.568Z,5.14
2023-03-26T05:22:07.239Z,5.14
2023-03-26T05:22:38.325Z,5.14
2023-03-26T05:23:11.428Z,5.14
2023-03-26T05:23:42.413Z,5.03
2023-03-26T05:24:15.379Z,5.03
2023-03-26T05:24:46.289Z,5.03
2023-03-26T05:25:19.186Z,5.03
2023-03-26T05:25:50.438Z,5.03
2023-03-26T05:26:23.039Z,5.03
2023-03-26T05:26:54.272Z,5.03
2023-03-26T05:27:27.087Z,5.03
2023-03-26T05:27:58.202Z,5.03
2023-03-26T05:28:31.193Z,5.03
2023-03-26T05:29:02.078Z,5.03
2023-03-26T05:29:35.472Z,5.03
2023-03-26T05:30:06.459Z,5.03
2023-03-26T05:30:39.120Z,5.03
2023-03-26T05:31:09.963Z,5.03
2023-03-26T05:31:42.896Z,5.03
2023-03-26T05:32:14.026Z,5.03
2023-03-26T05:32:47.742Z,5.03
2023-03-26T05:33:18.042Z,4.92
2023-03-26T05:33:51.242Z,5.07
2023-03-26T05:34:21.952Z,5.07
2023-03-26T05:34:54.859Z,5.07
2023-03-26T05:35:25.865Z,5.07
2023-03-26T05:35:58.747Z,5.07
2023-03-26T05:36:29.883Z,5.07
2023-03-26T05:37:02.695Z,5.07
2023-03-26T05:37:33.749Z,5.07
2023-03-26T05:38:06.766Z,5.07
2023-03-26T05:38:37.849Z,5.07
2023-03-26T05:39:11.023Z,5.07
2023-03-26T05:39:41.632Z,5.07
2023-03-26T05:40:14.779Z,5.07
2023-03-26T05:40:45.662Z,5.07
2023-03-26T05:41:18.589Z,5.07
2023-03-26T05:41:49.515Z,5.18
2023-03-26T05:42:22.454Z,5.18
2023-03-26T05:42:53.548Z,5.18
2023-03-26T05:43:26.704Z,5.18
2023-03-26T05:43:57.423Z,5.18
2023-03-26T05:44:30.411Z,5.18
2023-03-26T05:45:01.900Z,5.18
2023-03-26T05:45:34.496Z,5.18
2023-03-26T05:46:05.482Z,5.18
2023-03-26T05:46:38.274Z,5.18
2023-03-26T05:47:09.413Z,5.18
2023-03-26T05:47:42.617Z,5.18
2023-03-26T05:48:13.222Z,5.18
2023-03-26T05:48:46.265Z,5.18
2023-03-26T05:49:17.299Z,5.18
2023-03-26T05:49:50.282Z,5.29
2023-03-26T05:50:21.670Z,5.29
2023-03-26T05:50:54.259Z,5.29
2023-03-26T05:51:25.189Z,5.29
2023-03-26T05:51:58.432Z,5.29
2023-03-26T05:52:29.044Z,5.29
2023-03-26T05:53:02.087Z,5.29
2023-03-26T05:53:33.882Z,5.29
2023-03-26T05:54:06.062Z,5.29
2023-03-26T05:54:36.996Z,5.29
2023-03-26T05:55:09.928Z,5.34
2023-03-26T05:55:41.170Z,5.34
2023-03-26T05:56:13.956Z,5.34
2023-03-26T05:56:44.903Z,5.34
2023-03-26T05:57:17.788Z,5.34
2023-03-26T05:57:48.904Z,5.34
2023-03-26T05:58:21.829Z,5.34
2023-03-26T05:58:52.791Z,5.34
2023-03-26T05:59:25.702Z,5.45
2023-03-26T05:59:56.876Z,5.45
2023-03-26T06:00:29.862Z,5.45
2023-03-26T06:01:00.793Z,5.45
2023-03-26T06:01:33.647Z,5.45
2023-03-26T06:02:04.872Z,5.45
2023-03-26T06:02:37.683Z,5.45
2023-03-26T06:03:08.728Z,5.45
2023-03-26T06:03:41.618Z,5.45
2023-03-26T06:04:12.849Z,5.45
2023-03-26T06:04:46.267Z,5.57
2023-03-26T06:05:16.531Z,5.57
2023-03-26T06:05:49.422Z,5.57
2023-03-26T06:06:20.678Z,5.57
2023-03-26T06:06:54.612Z,5.57
2023-03-26T06:07:24.448Z,5.57
2023-03-26T06:07:57.432Z,5.68
2023-03-26T06:08:28.544Z,5.68
2023-03-26T06:09:02.953Z,5.53
2023-03-26T06:09:32.352Z,5.53
2023-03-26T06:10:05.258Z,5.53
2023-03-26T06:10:36.351Z,5.53
2023-03-26T06:11:09.258Z,5.53
2023-03-26T06:11:40.498Z,5.53
2023-03-26T06:12:13.148Z,5.53
2023-03-26T06:12:44.269Z,5.53
2023-03-26T06:13:17.275Z,5.64
2023-03-26T06:13:48.313Z,5.64
2023-03-26T06:14:21.210Z,5.64
2023-03-26T06:14:52.198Z,5.64
2023-03-26T06:15:25.205Z,5.64
2023-03-26T06:15:56.104Z,5.64
2023-03-26T06:16:29.051Z,5.64
2023-03-26T06:17:00.163Z,5.69
2023-03-26T06:17:33.385Z,5.69
2023-03-26T06:18:04.043Z,5.69
2023-03-26T06:18:36.990Z,5.69
2023-03-26T06:19:08.050Z,5.69
2023-03-26T06:19:41.020Z,5.69
2023-03-26T06:20:11.877Z,5.69
2023-03-26T06:20:44.851Z,5.69
2023-03-26T06:21:15.919Z,5.69
2023-03-26T06:21:48.879Z,5.69
2023-03-26T06:22:19.947Z,5.69
2023-03-26T06:22:52.797Z,5.80
2023-03-26T06:23:23.795Z,5.80
2023-03-26T06:23:56.883Z,5.80
2023-03-26T06:24:27.719Z,5.80
2023-03-26T06:25:00.887Z,5.80
2023-03-26T06:25:31.763Z,5.80
2023-03-26T06:26:05.011Z,5.80
2023-03-26T06:26:35.574Z,5.80
2023-03-26T06:27:08.714Z,5.92
2023-03-26T06:27:39.629Z,5.92
2023-03-26T06:28:12.659Z,5.92
2023-03-26T06:28:43.717Z,5.92
2023-03-26T06:29:16.434Z,5.92
2023-03-26T06:29:47.684Z,5.77
2023-03-26T06:30:20.778Z,5.77
2023-03-26T06:30:51.678Z,5.77
2023-03-26T06:31:24.406Z,5.77
2023-03-26T06:31:55.444Z,5.77
2023-03-26T06:32:28.431Z,5.77
2023-03-26T06:32:59.542Z,5.77
2023-03-26T06:33:32.354Z,5.77
2023-03-26T06:34:03.425Z,5.77
2023-03-26T06:34:36.355Z,5.77
2023-03-26T06:35:07.488Z,5.77
2023-03-26T06:35:40.485Z,5.88
2023-03-26T06:36:11.402Z,5.88
2023-03-26T06:36:44.481Z,5.88
2023-03-26T06:37:15.307Z,5.88
2023-03-26T06:37:48.090Z,5.88
2023-03-26T06:38:19.211Z,5.88
2023-03-26T06:38:52.391Z,5.88
2023-03-26T06:39:23.256Z,5.88
2023-03-26T06:39:56.297Z,5.88
2023-03-26T06:40:27.085Z,5.88
2023-03-26T06:41:00.000Z,5.88
2023-03-26T06:41:31.240Z,5.99
2023-03-26T06:42:04.186Z,5.99
2023-03-26T06:43:08.699Z,5.99
2023-03-26T06:43:10.647Z,5.99
2023-03-26T06:43:39.064Z,5.99
2023-03-26T06:44:12.778Z,5.99
2023-03-26T06:44:42.917Z,5.99
2023-03-26T06:45:15.967Z,5.99
2023-03-26T06:45:46.996Z,5.99
2023-03-26T06:46:19.777Z,6.04
2023-03-26T06:46:50.935Z,6.04
2023-03-26T06:47:24.091Z,6.04
2023-03-26T06:47:54.919Z,6.04
2023-03-26T06:48:27.711Z,6.04
2023-03-26T06:48:58.709Z,6.04
2023-03-26T06:49:31.700Z,6.04
2023-03-26T06:50:02.870Z,5.87
2023-03-26T06:50:35.718Z,6.04
2023-03-26T06:51:06.742Z,5.87
2023-03-26T06:51:39.550Z,5.87
2023-03-26T06:52:10.887Z,5.87
2023-03-26T06:52:43.454Z,5.98
2023-03-26T06:53:14.690Z,5.98
2023-03-26T06:53:47.704Z,5.98
2023-03-26T06:54:18.701Z,5.98
2023-03-26T06:54:51.532Z,5.98
2023-03-26T06:55:22.632Z,6.10
2023-03-26T06:55:56.320Z,6.10
2023-03-26T06:56:26.519Z,6.10
2023-03-26T06:56:59.458Z,6.10
2023-03-26T06:57:30.464Z,6.10
2023-03-26T06:58:03.432Z,6.10
2023-03-26T06:58:35.031Z,6.10
2023-03-26T06:59:08.192Z,6.10
2023-03-26T06:59:38.391Z,6.10
2023-03-26T07:00:11.906Z,6.10
2023-03-26T07:00:42.436Z,6.21
2023-03-26T07:01:15.216Z,6.21
2023-03-26T07:01:46.862Z,6.21
2023-03-26T07:02:19.549Z,6.21
2023-03-26T07:02:50.334Z,6.21
2023-03-26T07:03:23.077Z,6.21
2023-03-26T07:03:54.159Z,6.21
2023-03-26T07:04:27.096Z,6.21
2023-03-26T07:04:58.142Z,6.21
2023-03-26T07:05:31.203Z,6.10